Terminal Aerodrome Forecast
Issued by NWS

Home | Current Version | Previous Version | Text Only | Print | Product List | Glossary On
Versions: 1 2 3 4 5 6 7 8 9 10 11 12 13 14 15 16 17 18 19 20 21 22 23 24
000
FTUS43 KLOT 220903 AAA
TAFGYY
TAF AMD
KGYY 220903Z 2209/2306 23008KT P6SM -RA VCTS FEW030 SCT060CB BKN120
      TEMPO 2209/2212 5SM -TSRA SCT008 BKN035CB
     FM221400 23007KT P6SM SCT035 BKN080
     FM221800 01008KT P6SM SCT040
     FM230300 VRB04KT P6SM FEW250=

USA.gov is the U.S. government's official web portal to all federal, state and local government web resources and services.